createdAt,value
2022-07-28T00:04:51.748Z,4.60
2022-07-28T00:09:45.117Z,3.75
2022-07-28T00:12:11.904Z,3.28
2022-07-28T00:17:05.330Z,3.15
2022-07-28T00:21:58.757Z,4.07
2022-07-28T00:26:52.427Z,3.10
2022-07-28T00:29:19.311Z,3.50
2022-07-28T00:31:46.247Z,3.70
2022-07-28T00:34:13.498Z,4.47
2022-07-28T00:36:40.519Z,4.68
2022-07-28T00:39:07.992Z,4.00
2022-07-28T00:44:01.426Z,4.55
2022-07-28T00:46:29.127Z,4.20
2022-07-28T00:48:56.033Z,4.88
2022-07-28T00:53:52.641Z,5.07
2022-07-28T00:56:20.087Z,5.10
2022-07-28T00:58:47.969Z,4.68
2022-07-28T01:01:17.728Z,4.10
2022-07-28T01:03:51.207Z,4.00
2022-07-28T01:06:39.606Z,4.40
2022-07-28T01:09:38.678Z,4.78
2022-07-28T01:12:30.231Z,5.18
2022-07-28T01:15:10.242Z,4.53
2022-07-28T01:17:44.790Z,4.00
2022-07-28T01:20:31.754Z,5.35
2022-07-28T01:23:10.556Z,4.40
2022-07-28T01:25:48.061Z,4.40
2022-07-28T01:28:28.011Z,4.88
2022-07-28T01:31:02.377Z,5.50
2022-07-28T01:33:35.917Z,5.07
2022-07-28T01:36:09.648Z,5.00
2022-07-28T01:38:38.504Z,4.93
2022-07-28T01:41:12.326Z,4.38
2022-07-28T01:43:42.406Z,4.25
2022-07-28T01:46:10.354Z,5.38
2022-07-28T01:48:40.207Z,4.80
2022-07-28T01:51:09.078Z,4.30
2022-07-28T01:53:38.409Z,5.15
2022-07-28T01:56:07.428Z,4.20
2022-07-28T01:58:35.418Z,4.82
2022-07-28T02:01:03.921Z,4.57
2022-07-28T02:03:32.396Z,4.70
2022-07-28T02:06:02.599Z,4.93
2022-07-28T02:08:31.762Z,5.18
2022-07-28T02:11:18.295Z,4.68
2022-07-28T02:13:48.245Z,4.20
2022-07-28T02:16:17.810Z,5.00
2022-07-28T02:18:46.698Z,5.55
2022-07-28T02:21:14.775Z,4.43
2022-07-28T02:23:43.219Z,4.20
2022-07-28T02:26:12.108Z,5.00
2022-07-28T02:28:43.496Z,4.60
2022-07-28T02:31:16.094Z,4.20
2022-07-28T02:34:00.410Z,4.35
2022-07-28T02:36:37.818Z,4.00
2022-07-28T02:39:11.924Z,4.90
2022-07-28T02:41:42.420Z,4.97
2022-07-28T02:44:17.519Z,6.00
2022-07-28T02:46:48.018Z,4.95
2022-07-28T02:49:19.562Z,4.60
2022-07-28T02:51:49.162Z,4.68
2022-07-28T02:54:17.947Z,5.10
2022-07-28T02:56:53.870Z,5.93
2022-07-28T02:59:21.977Z,5.55
2022-07-28T03:01:50.052Z,5.95
2022-07-28T03:04:38.901Z,5.78
2022-07-28T03:07:05.965Z,5.38
2022-07-28T03:09:44.600Z,6.60
2022-07-28T03:12:11.795Z,4.55
2022-07-28T03:14:38.694Z,5.30
2022-07-28T03:19:32.987Z,4.90
2022-07-28T03:22:00.426Z,4.50
2022-07-28T03:24:30.874Z,5.05
2022-07-28T03:27:13.231Z,4.28
2022-07-28T03:29:42.683Z,4.18
2022-07-28T03:32:10.022Z,4.38
2022-07-28T03:34:37.153Z,4.63
2022-07-28T03:37:12.314Z,4.80
2022-07-28T03:39:46.799Z,5.28
2022-07-28T03:42:18.510Z,5.32
2022-07-28T03:44:49.059Z,5.03
2022-07-28T03:47:20.313Z,5.10
2022-07-28T03:49:47.104Z,4.30
2022-07-28T03:52:13.874Z,7.43
2022-07-28T03:57:07.452Z,4.90
2022-07-28T03:59:34.313Z,4.95
2022-07-28T04:04:28.319Z,4.82
2022-07-28T04:06:55.065Z,5.03
2022-07-28T04:09:23.104Z,5.47
2022-07-28T04:11:49.844Z,4.40
2022-07-28T04:14:17.971Z,4.72
2022-07-28T04:16:45.388Z,4.47
2022-07-28T04:19:12.126Z,3.72
2022-07-28T04:21:38.931Z,5.00
2022-07-28T04:26:32.553Z,5.35
2022-07-28T04:28:59.352Z,5.18
2022-07-28T04:31:30.385Z,4.93
2022-07-28T04:33:57.279Z,4.90
2022-07-28T04:36:24.016Z,5.15
2022-07-28T04:41:17.527Z,5.38
2022-07-28T04:46:14.970Z,4.57
2022-07-28T04:48:42.231Z,4.63
2022-07-28T04:51:09.619Z,5.13
2022-07-28T04:53:36.287Z,4.75
2022-07-28T04:56:03.323Z,4.82
2022-07-28T04:58:30.844Z,4.85
2022-07-28T05:00:57.926Z,4.55
2022-07-28T05:03:24.871Z,5.20
2022-07-28T05:08:22.558Z,4.47
2022-07-28T05:10:53.771Z,5.22
2022-07-28T05:13:20.575Z,5.22
2022-07-28T05:18:14.182Z,5.93
2022-07-28T05:23:08.449Z,5.38
2022-07-28T05:25:35.196Z,5.95
2022-07-28T05:30:29.413Z,5.03
2022-07-28T05:33:00.018Z,5.03
2022-07-28T05:35:26.950Z,5.07
2022-07-28T05:40:20.313Z,4.32
2022-07-28T05:42:50.102Z,4.85
2022-07-28T05:45:17.821Z,4.65
2022-07-28T05:47:47.291Z,4.78
2022-07-28T05:50:15.361Z,4.72
2022-07-28T05:52:42.183Z,4.28
2022-07-28T05:57:37.791Z,4.65
2022-07-28T06:00:10.241Z,5.95
2022-07-28T06:02:41.059Z,4.97
2022-07-28T06:05:08.462Z,4.60
2022-07-28T06:07:42.271Z,4.47
2022-07-28T06:10:15.384Z,5.03
2022-07-28T06:12:47.802Z,5.03
2022-07-28T06:15:16.970Z,5.28
2022-07-28T06:17:43.878Z,4.60
2022-07-28T06:20:11.728Z,5.00
2022-07-28T06:22:43.997Z,4.78
2022-07-28T06:25:19.361Z,5.53
2022-07-28T06:27:47.690Z,5.47
2022-07-28T06:30:15.670Z,4.80
2022-07-28T06:32:42.709Z,5.53
2022-07-28T06:35:10.717Z,5.57
2022-07-28T06:37:37.615Z,5.80
2022-07-28T06:40:06.075Z,6.10
2022-07-28T06:42:33.261Z,5.38
2022-07-28T06:45:00.189Z,5.95
2022-07-28T06:47:27.356Z,5.55
2022-07-28T06:49:54.192Z,5.13
2022-07-28T06:54:51.655Z,6.20
2022-07-28T06:57:21.011Z,6.35
2022-07-28T06:59:48.944Z,5.40
2022-07-28T07:02:17.214Z,5.88
2022-07-28T07:04:45.374Z,7.07
2022-07-28T07:07:16.790Z,6.15
2022-07-28T07:09:44.394Z,6.05
2022-07-28T07:12:11.221Z,5.50
2022-07-28T07:14:38.177Z,6.57
2022-07-28T07:17:05.042Z,4.72
2022-07-28T07:19:31.749Z,5.43
2022-07-28T07:24:25.338Z,5.18
2022-07-28T07:26:52.173Z,5.75
2022-07-28T07:29:19.868Z,5.93
2022-07-28T07:31:46.954Z,5.35
2022-07-28T07:34:19.564Z,5.60
2022-07-28T07:36:46.275Z,5.75
2022-07-28T07:39:13.370Z,6.32
2022-07-28T07:41:40.142Z,5.82
2022-07-28T07:44:07.007Z,5.53
2022-07-28T07:46:33.833Z,5.40
2022-07-28T07:49:00.970Z,5.38
2022-07-28T07:51:27.756Z,5.07
2022-07-28T07:53:54.503Z,5.53
2022-07-28T07:56:21.305Z,5.53
2022-07-28T07:58:53.647Z,5.50
2022-07-28T08:01:23.354Z,5.43
2022-07-28T08:03:50.370Z,5.53
2022-07-28T08:06:17.191Z,5.13
2022-07-28T08:08:53.670Z,5.80
2022-07-28T08:11:20.389Z,5.60
2022-07-28T08:13:47.235Z,5.57
2022-07-28T08:16:14.005Z,4.95
2022-07-28T08:18:40.985Z,5.70
2022-07-28T08:21:07.812Z,5.25
2022-07-28T08:23:34.679Z,5.95
2022-07-28T08:26:02.661Z,5.32
2022-07-28T08:28:29.506Z,6.18
2022-07-28T08:30:56.223Z,5.05
2022-07-28T08:33:23.025Z,5.13
2022-07-28T08:35:50.572Z,5.47
2022-07-28T08:38:17.485Z,6.40
2022-07-28T08:40:48.370Z,6.15
2022-07-28T08:43:33.571Z,5.57
2022-07-28T08:46:02.254Z,6.13
2022-07-28T08:48:33.175Z,6.25
2022-07-28T08:51:02.453Z,5.68
2022-07-28T08:53:31.841Z,7.07
2022-07-28T08:56:07.682Z,5.88
2022-07-28T08:58:37.274Z,7.43
2022-07-28T09:01:07.474Z,6.75
2022-07-28T09:03:34.796Z,6.00
2022-07-28T09:06:01.837Z,6.68
2022-07-28T09:08:28.565Z,7.25
2022-07-28T09:10:55.679Z,5.85
2022-07-28T09:13:22.633Z,7.72
2022-07-28T09:15:49.439Z,6.60
2022-07-28T09:18:17.731Z,6.18
2022-07-28T09:20:45.545Z,6.05
2022-07-28T09:23:42.539Z,5.18
2022-07-28T09:26:12.017Z,6.18
2022-07-28T09:28:52.506Z,6.28
2022-07-28T09:31:20.739Z,5.70
2022-07-28T09:34:02.344Z,6.90
2022-07-28T09:36:39.962Z,6.50
2022-07-28T09:39:07.207Z,6.13
2022-07-28T09:41:48.269Z,5.53
2022-07-28T09:44:19.726Z,5.53
2022-07-28T09:46:46.808Z,5.90
2022-07-28T09:49:14.477Z,6.07
2022-07-28T09:51:41.594Z,6.05
2022-07-28T09:54:15.288Z,5.38
2022-07-28T09:56:44.267Z,4.93
2022-07-28T09:59:14.655Z,4.60
2022-07-28T10:01:59.783Z,5.25
2022-07-28T10:04:35.587Z,4.97
2022-07-28T10:07:14.071Z,4.75
2022-07-28T10:09:41.619Z,5.72
2022-07-28T10:12:15.658Z,5.65
2022-07-28T10:14:42.703Z,4.45
2022-07-28T10:17:10.577Z,4.53
2022-07-28T10:19:37.848Z,5.13
2022-07-28T10:22:05.651Z,4.07
2022-07-28T10:24:37.651Z,5.25
2022-07-28T10:27:05.718Z,4.28
2022-07-28T10:29:32.670Z,4.88
2022-07-28T10:32:05.532Z,4.28
2022-07-28T10:34:32.253Z,4.68
2022-07-28T10:37:02.021Z,4.47
2022-07-28T10:39:35.953Z,4.75
2022-07-28T10:42:03.534Z,4.93
2022-07-28T10:44:31.337Z,4.50
2022-07-28T10:46:58.582Z,3.97
2022-07-28T10:49:32.572Z,3.95
2022-07-28T10:52:04.949Z,3.88
2022-07-28T10:55:09.097Z,3.70
2022-07-28T10:57:41.478Z,3.80
2022-07-28T11:00:25.727Z,3.10
2022-07-28T11:02:58.780Z,3.47
2022-07-28T11:05:29.925Z,3.95
2022-07-28T11:07:59.700Z,3.33
2022-07-28T11:10:27.266Z,3.05
2022-07-28T11:12:56.595Z,3.90
2022-07-28T11:15:37.853Z,3.28
2022-07-28T11:18:09.389Z,3.30
2022-07-28T11:20:52.639Z,2.47
2022-07-28T11:23:46.681Z,3.17
2022-07-28T11:26:34.605Z,3.30
2022-07-28T11:29:05.324Z,3.10
2022-07-28T11:31:52.450Z,3.42
2022-07-28T11:34:24.091Z,3.00
2022-07-28T11:37:10.186Z,3.40
2022-07-28T11:39:44.013Z,3.28
2022-07-28T11:42:32.286Z,3.17
2022-07-28T11:45:24.251Z,3.65
2022-07-28T11:48:15.396Z,3.35
2022-07-28T11:50:43.064Z,2.70
2022-07-28T11:53:10.642Z,3.28
2022-07-28T11:55:55.723Z,2.97
2022-07-28T11:58:25.759Z,2.78
2022-07-28T12:01:19.235Z,3.00
2022-07-28T12:03:54.892Z,2.97
2022-07-28T12:06:35.374Z,3.10
2022-07-28T12:09:06.266Z,3.20
2022-07-28T12:11:37.686Z,2.75
2022-07-28T12:14:08.740Z,2.30
2022-07-28T12:16:37.849Z,2.70
2022-07-28T12:19:08.327Z,3.45
2022-07-28T12:21:47.897Z,2.20
2022-07-28T12:24:19.103Z,3.17
2022-07-28T12:26:49.526Z,3.00
2022-07-28T12:29:17.819Z,2.75
2022-07-28T12:31:55.798Z,2.80
2022-07-28T12:34:24.157Z,2.38
2022-07-28T12:36:57.986Z,2.60
2022-07-28T12:39:26.169Z,2.42
2022-07-28T12:42:00.279Z,2.20
2022-07-28T12:44:35.323Z,2.20
2022-07-28T12:47:03.392Z,2.10
2022-07-28T12:49:30.151Z,2.50
2022-07-28T12:51:59.014Z,2.20
2022-07-28T12:54:38.291Z,2.35
2022-07-28T12:57:05.204Z,2.72
2022-07-28T12:59:33.854Z,2.28
2022-07-28T13:02:00.846Z,2.20
2022-07-28T13:04:50.009Z,2.10
2022-07-28T13:07:22.637Z,2.78
2022-07-28T13:10:01.468Z,1.92
2022-07-28T13:12:30.828Z,3.30
2022-07-28T13:14:59.657Z,2.55
2022-07-28T13:17:47.647Z,2.50
2022-07-28T13:20:14.412Z,2.17
2022-07-28T13:22:44.980Z,2.90
2022-07-28T13:25:12.148Z,3.10
2022-07-28T13:27:39.298Z,2.72
2022-07-28T13:30:08.316Z,2.30
2022-07-28T13:32:35.307Z,2.28
2022-07-28T13:35:03.032Z,2.38
2022-07-28T13:37:29.750Z,2.00
2022-07-28T13:39:56.463Z,2.50
2022-07-28T13:42:23.669Z,2.40
2022-07-28T13:44:50.766Z,2.50
2022-07-28T13:47:18.139Z,2.78
2022-07-28T13:49:45.304Z,1.90
2022-07-28T13:52:17.134Z,2.30
2022-07-28T13:54:56.125Z,2.30
2022-07-28T13:57:22.826Z,2.45
2022-07-28T13:59:52.039Z,2.70
2022-07-28T14:02:20.608Z,2.83
2022-07-28T14:04:52.748Z,2.92
2022-07-28T14:07:20.747Z,2.60
2022-07-28T14:09:50.063Z,2.40
2022-07-28T14:12:17.840Z,3.10
2022-07-28T14:14:48.360Z,2.40
2022-07-28T14:20:04.426Z,2.17
2022-07-28T14:22:31.208Z,3.20
2022-07-28T14:24:57.952Z,2.90
2022-07-28T14:27:28.940Z,2.38
2022-07-28T14:29:56.032Z,2.53
2022-07-28T14:32:23.146Z,2.72
2022-07-28T14:34:50.422Z,2.80
2022-07-28T14:37:17.555Z,3.33
2022-07-28T14:39:44.503Z,2.97
2022-07-28T14:42:11.301Z,2.72
2022-07-28T14:44:38.107Z,2.60
2022-07-28T14:47:06.442Z,3.20
2022-07-28T14:49:35.693Z,2.60
2022-07-28T14:52:03.703Z,2.45
2022-07-28T14:54:30.441Z,2.70
2022-07-28T14:56:57.210Z,2.80
2022-07-28T14:59:23.960Z,2.78
2022-07-28T15:01:50.878Z,2.88
2022-07-28T15:04:18.648Z,2.38
2022-07-28T15:06:47.123Z,3.22
2022-07-28T15:09:14.664Z,2.65
2022-07-28T15:11:41.974Z,3.00
2022-07-28T15:14:09.003Z,2.70
2022-07-28T15:16:36.069Z,2.55
2022-07-28T15:19:02.971Z,2.75
2022-07-28T15:21:35.919Z,2.72
2022-07-28T15:24:03.710Z,2.63
2022-07-28T15:26:30.612Z,2.97
2022-07-28T15:28:57.703Z,2.83
2022-07-28T15:31:25.536Z,2.53
2022-07-28T15:33:57.846Z,2.53
2022-07-28T15:36:25.859Z,2.85
2022-07-28T15:38:53.873Z,2.80
2022-07-28T15:41:20.790Z,2.60
2022-07-28T15:43:47.575Z,2.67
2022-07-28T15:46:14.758Z,2.17
2022-07-28T15:48:44.459Z,2.50
2022-07-28T15:51:11.601Z,2.53
2022-07-28T15:53:38.742Z,2.58
2022-07-28T15:56:05.745Z,2.90
2022-07-28T15:58:32.517Z,2.42
2022-07-28T16:01:01.017Z,2.50
2022-07-28T16:03:29.506Z,2.20
2022-07-28T16:05:56.613Z,2.72
2022-07-28T16:08:23.585Z,2.78
2022-07-28T16:10:52.700Z,2.85
2022-07-28T16:13:28.644Z,2.20
2022-07-28T16:16:05.588Z,2.85
2022-07-28T16:18:32.438Z,2.70
2022-07-28T16:20:59.164Z,2.45
2022-07-28T16:23:25.926Z,2.70
2022-07-28T16:25:52.877Z,2.45
2022-07-28T16:28:19.679Z,2.75
2022-07-28T16:30:47.170Z,2.65
2022-07-28T16:33:14.186Z,3.08
2022-07-28T16:35:41.015Z,2.83
2022-07-28T16:38:07.785Z,2.80
2022-07-28T16:40:34.667Z,3.45
2022-07-28T16:43:03.976Z,3.40
2022-07-28T16:45:31.853Z,2.78
2022-07-28T16:47:59.660Z,2.75
2022-07-28T16:50:27.418Z,2.80
2022-07-28T16:52:55.579Z,2.60
2022-07-28T16:55:24.019Z,2.85
2022-07-28T16:57:54.123Z,2.80
2022-07-28T17:00:21.700Z,2.95
2022-07-28T17:02:48.522Z,2.67
2022-07-28T17:05:15.462Z,3.13
2022-07-28T17:07:45.610Z,2.92
2022-07-28T17:10:15.305Z,2.65
2022-07-28T17:12:49.931Z,2.97
2022-07-28T17:15:21.958Z,3.05
2022-07-28T17:17:53.433Z,2.85
2022-07-28T17:20:21.083Z,2.92
2022-07-28T17:22:48.222Z,3.20
2022-07-28T17:28:02.007Z,3.42
2022-07-28T17:30:30.294Z,3.80
2022-07-28T17:32:58.831Z,2.92
2022-07-28T17:35:34.551Z,3.53
2022-07-28T17:38:03.979Z,3.03
2022-07-28T17:40:31.034Z,3.15
2022-07-28T17:42:57.888Z,3.50
2022-07-28T17:45:24.666Z,3.47
2022-07-28T17:47:51.730Z,3.50
2022-07-28T17:50:18.557Z,3.55
2022-07-28T17:52:46.419Z,3.45
2022-07-28T17:55:40.757Z,3.22
2022-07-28T17:58:27.795Z,3.47
2022-07-28T18:01:22.935Z,3.72
2022-07-28T18:03:56.395Z,4.28
2022-07-28T18:06:33.701Z,5.32
2022-07-28T18:09:07.027Z,5.60
2022-07-28T18:11:56.808Z,4.32
2022-07-28T18:14:29.689Z,4.10
2022-07-28T18:16:56.876Z,3.50
2022-07-28T18:19:23.678Z,3.58
2022-07-28T18:21:50.722Z,4.93
2022-07-28T18:24:18.570Z,3.95
2022-07-28T18:26:45.714Z,4.38
2022-07-28T18:29:12.622Z,4.43
2022-07-28T18:31:45.604Z,4.95
2022-07-28T18:34:14.246Z,3.97
2022-07-28T18:36:41.252Z,4.60
2022-07-28T18:39:08.496Z,4.05
2022-07-28T18:41:46.722Z,3.45
2022-07-28T18:44:18.941Z,2.83
2022-07-28T18:46:46.815Z,2.70
2022-07-28T18:49:14.223Z,3.80
2022-07-28T18:51:44.059Z,4.10
2022-07-28T18:54:13.529Z,3.65
2022-07-28T18:56:40.814Z,3.35
2022-07-28T18:59:07.689Z,3.42
2022-07-28T19:01:34.524Z,3.33
2022-07-28T19:04:01.315Z,3.65
2022-07-28T19:06:29.254Z,3.75
2022-07-28T19:08:56.515Z,3.55
2022-07-28T19:11:23.296Z,4.05
2022-07-28T19:16:16.909Z,3.72
2022-07-28T19:18:43.705Z,3.22
2022-07-28T19:23:37.212Z,2.72
2022-07-28T19:26:03.965Z,2.45
2022-07-28T19:30:58.540Z,2.30
2022-07-28T19:33:25.880Z,2.85
2022-07-28T19:35:52.675Z,2.17
2022-07-28T19:40:46.515Z,1.95
2022-07-28T19:43:13.242Z,2.17
2022-07-28T19:48:07.416Z,1.77
2022-07-28T19:50:35.035Z,1.52
2022-07-28T19:53:02.476Z,1.10
2022-07-28T19:55:32.139Z,1.13
2022-07-28T19:58:01.782Z,1.33
2022-07-28T20:00:28.714Z,1.20
2022-07-28T20:02:55.625Z,1.15
2022-07-28T20:05:22.589Z,0.77
2022-07-28T20:07:49.478Z,1.10
2022-07-28T20:10:16.245Z,1.73
2022-07-28T20:15:10.036Z,1.52
2022-07-28T20:17:39.746Z,1.30
2022-07-28T20:20:09.005Z,1.15
2022-07-28T20:22:36.140Z,1.30
2022-07-28T20:25:04.164Z,1.45
2022-07-28T20:27:30.959Z,1.15
2022-07-28T20:32:26.165Z,1.70
2022-07-28T20:34:53.036Z,1.27
2022-07-28T20:40:06.100Z,1.50
2022-07-28T20:42:33.016Z,1.27
2022-07-28T20:47:27.638Z,1.92
2022-07-28T20:49:55.147Z,1.52
2022-07-28T20:52:21.975Z,1.52
2022-07-28T20:57:22.056Z,1.48
2022-07-28T20:59:50.988Z,1.58
2022-07-28T21:02:18.769Z,2.00
2022-07-28T21:04:45.607Z,1.48
2022-07-28T21:07:12.371Z,1.60
2022-07-28T21:09:39.793Z,1.73
2022-07-28T21:12:07.184Z,1.55
2022-07-28T21:14:33.946Z,1.73
2022-07-28T21:17:01.856Z,1.52
2022-07-28T21:21:55.363Z,1.77
2022-07-28T21:26:51.795Z,2.03
2022-07-28T21:31:58.454Z,2.10
2022-07-28T21:34:32.070Z,1.77
2022-07-28T21:37:05.055Z,2.00
2022-07-28T21:39:33.193Z,1.80
2022-07-28T21:42:00.342Z,2.00
2022-07-28T21:44:27.323Z,1.90
2022-07-28T21:46:54.072Z,2.10
2022-07-28T21:51:47.777Z,2.13
2022-07-28T21:56:41.816Z,2.88
2022-07-28T22:01:35.289Z,2.40
2022-07-28T22:04:02.098Z,1.73
2022-07-28T22:06:28.837Z,2.45
2022-07-28T22:11:22.666Z,2.05
2022-07-28T22:13:49.417Z,2.13
2022-07-28T22:18:43.828Z,1.90
2022-07-28T22:21:10.560Z,2.10
2022-07-28T22:26:04.049Z,2.30
2022-07-28T22:31:08.670Z,2.20
2022-07-28T22:33:40.262Z,2.15
2022-07-28T22:36:08.639Z,1.88
2022-07-28T22:38:35.834Z,1.60
2022-07-28T22:41:02.649Z,1.70
2022-07-28T22:45:58.029Z,1.83
2022-07-28T22:50:51.503Z,1.52
2022-07-28T22:55:44.967Z,1.58
2022-07-28T22:58:11.665Z,1.75
2022-07-28T23:00:38.359Z,1.77
2022-07-28T23:05:32.308Z,1.95
2022-07-28T23:07:59.209Z,1.60
2022-07-28T23:10:26.732Z,1.95
2022-07-28T23:12:56.161Z,2.00
2022-07-28T23:15:40.025Z,1.60
2022-07-28T23:18:13.547Z,1.65
2022-07-28T23:20:41.583Z,1.85
2022-07-28T23:23:09.509Z,1.85
2022-07-28T23:25:39.212Z,1.60
2022-07-28T23:28:07.056Z,1.88
2022-07-28T23:30:33.962Z,2.25
2022-07-28T23:35:27.524Z,2.10
2022-07-28T23:37:54.296Z,1.90
2022-07-28T23:42:48.544Z,1.50
2022-07-28T23:45:15.290Z,1.90
2022-07-28T23:50:09.023Z,2.22
2022-07-28T23:52:35.909Z,1.40
2022-07-28T23:55:02.787Z,1.48
2022-07-28T23:59:58.890Z,1.63
